createdAt,value
2017-09-15T00:01:17.873Z,10.90
2017-09-15T00:03:46.216Z,10.80
2017-09-15T00:06:14.522Z,10.90
2017-09-15T00:08:42.860Z,10.90
2017-09-15T00:11:11.927Z,11.00
2017-09-15T00:13:40.248Z,11.00
2017-09-15T00:16:08.611Z,11.00
2017-09-15T00:18:37.719Z,11.00
2017-09-15T00:21:06.021Z,10.90
2017-09-15T00:23:35.116Z,11.00
2017-09-15T00:26:03.438Z,11.00
2017-09-15T00:28:31.771Z,11.00
2017-09-15T00:31:00.084Z,10.90
2017-09-15T00:33:28.405Z,11.00
2017-09-15T00:35:56.736Z,11.00
2017-09-15T00:38:25.079Z,11.00
2017-09-15T00:40:53.402Z,11.00
2017-09-15T00:43:21.756Z,11.00
2017-09-15T00:45:50.858Z,11.00
2017-09-15T00:48:19.182Z,11.00
2017-09-15T00:50:48.273Z,11.00
2017-09-15T00:53:17.365Z,11.00
2017-09-15T00:55:46.471Z,11.10
2017-09-15T00:58:15.550Z,11.10
2017-09-15T01:00:44.691Z,11.10
2017-09-15T01:03:13.013Z,11.10
2017-09-15T01:05:41.364Z,11.00
2017-09-15T01:08:09.686Z,11.10
2017-09-15T01:10:38.800Z,11.00
2017-09-15T01:13:07.125Z,11.00
2017-09-15T01:15:35.461Z,11.00
2017-09-15T01:18:10.326Z,10.90
2017-09-15T01:20:38.650Z,11.00
2017-09-15T01:23:06.974Z,11.00
2017-09-15T01:25:35.325Z,11.10
2017-09-15T01:28:03.645Z,11.10
2017-09-15T01:30:31.990Z,11.10
2017-09-15T01:33:01.068Z,11.20
2017-09-15T01:35:30.175Z,11.20
2017-09-15T01:37:59.315Z,11.10
2017-09-15T01:40:27.661Z,11.10
2017-09-15T01:42:56.737Z,11.10
2017-09-15T01:45:25.837Z,11.20
2017-09-15T01:47:54.141Z,11.20
2017-09-15T01:50:22.474Z,11.20
2017-09-15T01:52:50.784Z,11.20
2017-09-15T01:55:19.137Z,11.10
2017-09-15T01:57:47.449Z,11.10
2017-09-15T02:00:15.786Z,11.10
2017-09-15T02:02:44.115Z,11.20
2017-09-15T02:05:12.453Z,11.10
2017-09-15T02:07:40.753Z,11.10
2017-09-15T02:10:09.845Z,11.20
2017-09-15T02:12:38.921Z,11.10
2017-09-15T02:15:08.026Z,11.00
2017-09-15T02:17:37.106Z,11.00
2017-09-15T02:20:05.450Z,11.00
2017-09-15T02:22:33.758Z,11.00
2017-09-15T02:25:02.105Z,10.90
2017-09-15T02:27:30.439Z,10.80
2017-09-15T02:29:58.802Z,10.80
2017-09-15T02:32:27.126Z,10.80
2017-09-15T02:34:55.463Z,10.90
2017-09-15T02:37:23.793Z,10.90
2017-09-15T02:39:52.135Z,11.00
2017-09-15T02:42:21.223Z,11.00
2017-09-15T02:44:55.841Z,11.00
2017-09-15T02:47:24.146Z,10.90
2017-09-15T02:49:53.249Z,10.90
2017-09-15T02:52:22.335Z,10.90
2017-09-15T02:54:51.457Z,10.80
2017-09-15T02:57:19.767Z,10.80
2017-09-15T02:59:48.190Z,10.80
2017-09-15T03:02:17.287Z,10.90
2017-09-15T03:04:46.401Z,10.90
2017-09-15T03:07:14.752Z,10.80
2017-09-15T03:09:43.091Z,10.90
2017-09-15T03:12:12.169Z,10.80
2017-09-15T03:14:40.512Z,10.80
2017-09-15T03:17:09.611Z,10.80
2017-09-15T03:19:38.715Z,10.80
2017-09-15T03:22:07.795Z,10.80
2017-09-15T03:24:36.130Z,10.80
2017-09-15T03:27:04.443Z,11.00
2017-09-15T03:29:32.795Z,10.90
2017-09-15T03:32:01.108Z,10.90
2017-09-15T03:34:29.463Z,10.80
2017-09-15T03:36:57.778Z,10.90
2017-09-15T03:42:25.707Z,10.90
2017-09-15T03:44:54.982Z,10.90
2017-09-15T03:47:23.300Z,10.80
2017-09-15T03:49:51.644Z,10.80
2017-09-15T03:52:20.757Z,10.80
2017-09-15T03:54:49.087Z,10.80
2017-09-15T03:57:17.419Z,10.70
2017-09-15T03:59:45.741Z,10.80
2017-09-15T04:02:14.082Z,10.70
2017-09-15T04:04:42.386Z,10.70
2017-09-15T04:07:10.739Z,10.60
2017-09-15T04:09:39.061Z,10.60
2017-09-15T04:12:07.394Z,10.60
2017-09-15T04:14:37.637Z,10.60
2017-09-15T04:17:06.008Z,10.70
2017-09-15T04:19:34.331Z,10.60
2017-09-15T04:22:02.651Z,10.40
2017-09-15T04:24:30.980Z,10.20
2017-09-15T04:26:59.307Z,10.30
2017-09-15T04:29:27.655Z,10.20
2017-09-15T04:31:56.729Z,10.20
2017-09-15T04:34:25.087Z,10.10
2017-09-15T04:36:53.416Z,10.10
2017-09-15T04:39:22.523Z,10.30
2017-09-15T04:41:50.827Z,10.30
2017-09-15T04:44:19.166Z,10.30
2017-09-15T04:46:48.253Z,10.30
2017-09-15T04:49:17.363Z,10.20
2017-09-15T04:51:45.694Z,10.20
2017-09-15T04:54:14.019Z,10.20
2017-09-15T04:56:42.380Z,10.20
2017-09-15T04:59:10.702Z,10.10
2017-09-15T05:01:39.069Z,10.00
2017-09-15T05:04:07.387Z,10.10
2017-09-15T05:06:35.727Z,10.30
2017-09-15T05:09:04.051Z,10.30
2017-09-15T05:11:32.397Z,10.30
2017-09-15T05:14:00.714Z,10.20
2017-09-15T05:16:29.068Z,10.00
2017-09-15T05:18:57.400Z,10.00
2017-09-15T05:21:26.507Z,10.10
2017-09-15T05:23:54.822Z,10.10
2017-09-15T05:26:23.156Z,10.10
2017-09-15T05:28:52.274Z,10.00
2017-09-15T05:31:20.596Z,10.00
2017-09-15T05:33:48.922Z,9.80
2017-09-15T05:36:17.252Z,9.70
2017-09-15T05:38:45.584Z,9.50
2017-09-15T05:41:13.895Z,9.80
2017-09-15T05:43:42.225Z,9.70
2017-09-15T05:46:11.307Z,9.80
2017-09-15T05:48:39.643Z,9.80
2017-09-15T05:51:07.951Z,10.00
2017-09-15T05:53:36.291Z,10.10
2017-09-15T05:56:05.400Z,9.90
2017-09-15T05:58:33.702Z,9.90
2017-09-15T06:01:02.035Z,10.00
2017-09-15T06:03:30.351Z,10.10
2017-09-15T06:05:58.679Z,9.90
2017-09-15T06:08:26.994Z,10.00
2017-09-15T06:10:55.326Z,10.30
2017-09-15T06:13:24.467Z,10.40
2017-09-15T06:15:52.803Z,10.30
2017-09-15T06:18:21.878Z,11.00
2017-09-15T06:20:50.249Z,11.00
2017-09-15T06:23:19.352Z,11.60
2017-09-15T06:25:47.676Z,11.60
2017-09-15T06:28:16.020Z,11.70
2017-09-15T06:30:45.098Z,12.10
2017-09-15T06:33:13.443Z,12.10
2017-09-15T06:35:41.781Z,12.10
2017-09-15T06:38:10.891Z,12.40
2017-09-15T06:40:39.205Z,12.30
2017-09-15T06:43:07.611Z,12.70
2017-09-15T06:45:35.944Z,12.80
2017-09-15T06:48:04.265Z,13.10
2017-09-15T06:50:32.607Z,13.30
2017-09-15T06:53:00.914Z,13.50
2017-09-15T06:55:29.254Z,13.60
2017-09-15T06:57:57.574Z,13.60
2017-09-15T07:00:25.918Z,13.80
2017-09-15T07:02:54.229Z,14.00
2017-09-15T07:05:22.563Z,13.80
2017-09-15T07:07:50.885Z,14.10
2017-09-15T07:10:19.249Z,14.30
2017-09-15T07:12:47.565Z,14.60
2017-09-15T07:15:15.875Z,14.60
2017-09-15T07:17:44.235Z,14.80
2017-09-15T07:20:13.326Z,14.50
2017-09-15T07:22:42.420Z,14.50
2017-09-15T07:25:11.602Z,14.70
2017-09-15T07:27:39.966Z,14.60
2017-09-15T07:30:08.276Z,14.80
2017-09-15T07:32:37.384Z,15.00
2017-09-15T07:35:06.458Z,15.20
2017-09-15T07:37:34.798Z,15.20
2017-09-15T07:40:03.107Z,15.50
2017-09-15T07:42:31.418Z,15.50
2017-09-15T07:45:00.520Z,15.90
2017-09-15T07:47:29.594Z,16.00
2017-09-15T07:49:57.918Z,16.00
2017-09-15T07:52:26.271Z,16.10
2017-09-15T07:54:55.391Z,15.80
2017-09-15T07:57:23.698Z,15.80
2017-09-15T07:59:52.022Z,15.80
2017-09-15T08:02:21.102Z,15.50
2017-09-15T08:04:49.434Z,15.50
2017-09-15T08:07:17.739Z,15.40
2017-09-15T08:09:46.080Z,15.20
2017-09-15T08:12:15.162Z,14.80
2017-09-15T08:14:43.477Z,14.80
2017-09-15T08:17:11.811Z,14.70
2017-09-15T08:19:40.122Z,14.80
2017-09-15T08:22:08.450Z,14.00
2017-09-15T08:24:37.513Z,15.00
2017-09-15T08:27:05.857Z,15.00
2017-09-15T08:29:34.167Z,15.20
2017-09-15T08:32:02.497Z,15.10
2017-09-15T08:34:31.566Z,14.70
2017-09-15T08:36:59.897Z,14.60
2017-09-15T08:39:28.214Z,15.20
2017-09-15T08:41:56.547Z,15.30
2017-09-15T08:44:24.872Z,15.30
2017-09-15T08:46:53.199Z,15.50
2017-09-15T08:49:21.510Z,15.60
2017-09-15T08:51:49.842Z,15.80
2017-09-15T08:54:18.157Z,15.80
2017-09-15T08:56:46.494Z,15.80
2017-09-15T08:59:15.563Z,16.00
2017-09-15T09:01:44.653Z,15.90
2017-09-15T09:04:12.961Z,15.90
2017-09-15T09:06:42.071Z,15.80
2017-09-15T09:09:10.395Z,15.80
2017-09-15T09:11:38.730Z,15.90
2017-09-15T09:14:07.058Z,15.80
2017-09-15T09:16:35.399Z,15.80
2017-09-15T09:19:03.711Z,16.00
2017-09-15T09:21:32.055Z,15.90
2017-09-15T09:24:00.370Z,16.00
2017-09-15T09:26:28.693Z,16.00
2017-09-15T09:28:57.009Z,15.90
2017-09-15T09:31:25.339Z,16.00
2017-09-15T09:33:54.406Z,16.20
2017-09-15T09:36:22.737Z,16.20
2017-09-15T09:38:51.054Z,16.40
2017-09-15T09:41:19.379Z,16.50
2017-09-15T09:43:47.698Z,16.60
2017-09-15T09:46:16.034Z,16.40
2017-09-15T09:48:45.102Z,16.20
2017-09-15T09:51:13.442Z,16.20
2017-09-15T09:53:41.755Z,16.30
2017-09-15T09:56:10.082Z,16.40
2017-09-15T09:58:38.391Z,16.50
2017-09-15T10:01:06.713Z,16.60
2017-09-15T10:03:35.789Z,16.40
2017-09-15T10:06:04.125Z,16.40
2017-09-15T10:08:32.451Z,16.40
2017-09-15T10:11:00.785Z,16.40
2017-09-15T10:13:29.102Z,16.40
2017-09-15T10:15:57.451Z,16.50
2017-09-15T10:18:25.761Z,16.40
2017-09-15T10:20:54.102Z,16.60
2017-09-15T10:23:23.341Z,16.80
2017-09-15T10:25:51.674Z,16.80
2017-09-15T10:28:20.019Z,16.80
2017-09-15T10:30:51.052Z,16.90
2017-09-15T10:33:19.398Z,16.90
2017-09-15T10:35:48.528Z,16.70
2017-09-15T10:38:17.739Z,16.70
2017-09-15T10:40:46.822Z,16.80
2017-09-15T10:43:15.935Z,16.70
2017-09-15T10:45:45.007Z,16.90
2017-09-15T10:48:13.340Z,16.90
2017-09-15T10:50:41.668Z,16.90
2017-09-15T10:53:10.008Z,16.80
2017-09-15T10:55:38.324Z,16.50
2017-09-15T10:58:12.299Z,16.90
2017-09-15T11:00:40.628Z,17.10
2017-09-15T11:03:09.720Z,17.10
2017-09-15T11:05:38.798Z,17.30
2017-09-15T11:08:07.147Z,17.30
2017-09-15T11:10:35.464Z,17.60
2017-09-15T11:13:03.804Z,17.90
2017-09-15T11:15:32.119Z,18.00
2017-09-15T11:18:00.455Z,17.60
2017-09-15T11:20:28.783Z,17.50
2017-09-15T11:22:57.119Z,17.70
2017-09-15T11:25:25.432Z,17.70
2017-09-15T11:27:53.795Z,17.50
2017-09-15T11:30:22.119Z,17.40
2017-09-15T11:32:50.464Z,17.40
2017-09-15T11:35:18.767Z,17.60
2017-09-15T11:37:47.101Z,17.20
2017-09-15T11:40:15.424Z,17.20
2017-09-15T11:42:43.762Z,17.30
2017-09-15T11:45:12.065Z,17.20
2017-09-15T11:47:40.391Z,17.30
2017-09-15T11:50:08.703Z,17.30
2017-09-15T11:52:37.058Z,17.20
2017-09-15T11:55:06.123Z,17.20
2017-09-15T11:57:34.464Z,17.20
2017-09-15T12:00:02.769Z,16.80
2017-09-15T12:02:31.125Z,17.00
2017-09-15T12:05:00.314Z,17.20
2017-09-15T12:07:28.693Z,17.10
2017-09-15T12:09:57.002Z,17.30
2017-09-15T12:12:26.100Z,17.70
2017-09-15T12:14:55.188Z,18.10
2017-09-15T12:17:24.292Z,18.20
2017-09-15T12:19:53.366Z,17.50
2017-09-15T12:22:21.686Z,17.50
2017-09-15T12:24:50.031Z,17.30
2017-09-15T12:27:18.367Z,17.50
2017-09-15T12:29:46.682Z,17.60
2017-09-15T12:32:15.022Z,17.70
2017-09-15T12:34:43.329Z,17.90
2017-09-15T12:37:11.659Z,18.00
2017-09-15T12:39:39.966Z,18.10
2017-09-15T12:42:08.317Z,18.20
2017-09-15T12:44:36.622Z,18.20
2017-09-15T12:47:04.954Z,18.20
2017-09-15T12:49:34.033Z,18.70
2017-09-15T12:52:02.366Z,18.70
2017-09-15T12:54:30.679Z,18.10
2017-09-15T12:56:59.005Z,18.20
2017-09-15T12:59:27.313Z,18.00
2017-09-15T13:01:58.784Z,18.60
2017-09-15T13:04:27.106Z,18.50
2017-09-15T13:06:55.444Z,18.50
2017-09-15T13:09:23.749Z,18.30
2017-09-15T13:11:52.838Z,17.60
2017-09-15T13:14:21.922Z,17.90
2017-09-15T13:16:50.259Z,17.90
2017-09-15T13:19:18.573Z,17.90
2017-09-15T13:21:46.911Z,18.20
2017-09-15T13:24:15.212Z,18.50
2017-09-15T13:26:43.538Z,18.40
2017-09-15T13:29:11.879Z,18.20
2017-09-15T13:31:40.185Z,18.20
2017-09-15T13:34:09.280Z,18.30
2017-09-15T13:36:37.600Z,18.20
2017-09-15T13:39:05.939Z,18.30
2017-09-15T13:41:35.015Z,18.30
2017-09-15T13:44:03.358Z,18.30
2017-09-15T13:46:31.666Z,18.20
2017-09-15T13:49:00.016Z,18.30
2017-09-15T13:51:28.327Z,18.50
2017-09-15T13:53:56.661Z,18.40
2017-09-15T13:56:24.980Z,18.70
2017-09-15T13:58:53.358Z,18.50
2017-09-15T14:01:21.672Z,18.40
2017-09-15T14:03:50.772Z,18.30
2017-09-15T14:06:19.854Z,18.00
2017-09-15T14:08:48.967Z,17.80
2017-09-15T14:11:17.286Z,17.80
2017-09-15T14:13:47.511Z,17.70
2017-09-15T14:16:15.847Z,17.80
2017-09-15T14:18:44.931Z,17.90
2017-09-15T14:21:14.046Z,18.00
2017-09-15T14:23:42.353Z,18.00
2017-09-15T14:26:14.290Z,18.00
2017-09-15T14:28:42.602Z,18.00
2017-09-15T14:31:10.934Z,18.10
2017-09-15T14:33:40.007Z,17.60
2017-09-15T14:36:08.342Z,17.50
2017-09-15T14:38:36.661Z,17.50
2017-09-15T14:41:05.008Z,17.50
2017-09-15T14:43:33.309Z,17.40
2017-09-15T14:46:01.648Z,17.30
2017-09-15T14:48:30.869Z,17.30
2017-09-15T14:50:59.182Z,17.30
2017-09-15T14:53:27.518Z,17.10
2017-09-15T14:55:55.831Z,17.20
2017-09-15T14:58:24.166Z,17.20
2017-09-15T15:00:52.485Z,17.20
2017-09-15T15:03:20.839Z,17.00
2017-09-15T15:05:49.146Z,16.80
2017-09-15T15:08:18.380Z,16.50
2017-09-15T15:10:47.469Z,16.00
2017-09-15T15:13:15.883Z,15.50
2017-09-15T15:15:44.248Z,15.20
2017-09-15T15:18:12.614Z,15.20
2017-09-15T15:20:40.964Z,15.30
2017-09-15T15:23:10.082Z,14.90
2017-09-15T15:25:38.481Z,14.90
2017-09-15T15:28:06.815Z,14.90
2017-09-15T15:30:35.187Z,15.00
2017-09-15T15:33:03.535Z,15.00
2017-09-15T15:35:31.912Z,15.00
2017-09-15T15:38:00.251Z,14.90
2017-09-15T15:40:29.383Z,14.80
2017-09-15T15:42:57.736Z,14.80
2017-09-15T15:45:28.067Z,14.70
2017-09-15T15:47:56.399Z,14.70
2017-09-15T15:50:24.778Z,14.70
2017-09-15T15:52:53.115Z,14.50
2017-09-15T15:55:21.449Z,14.50
2017-09-15T15:57:49.807Z,14.40
2017-09-15T16:00:18.164Z,14.20
2017-09-15T16:02:46.550Z,14.30
2017-09-15T16:05:14.878Z,14.40
2017-09-15T16:07:44.010Z,14.40
2017-09-15T16:10:12.367Z,14.30
2017-09-15T16:12:40.756Z,14.60
2017-09-15T16:15:09.115Z,14.60
2017-09-15T16:17:38.272Z,14.80
2017-09-15T16:20:06.590Z,14.70
2017-09-15T16:22:34.983Z,14.90
2017-09-15T16:25:03.334Z,14.60
2017-09-15T16:27:31.680Z,14.60
2017-09-15T16:30:00.076Z,14.50
2017-09-15T16:32:28.406Z,14.70
2017-09-15T16:34:56.742Z,14.90
2017-09-15T16:37:24.579Z,14.90
2017-09-15T16:39:58.714Z,14.90
2017-09-15T16:42:32.727Z,14.90
2017-09-15T16:45:06.787Z,14.80
2017-09-15T16:47:41.472Z,14.80
2017-09-15T16:50:09.820Z,14.80
2017-09-15T16:52:38.150Z,14.50
2017-09-15T16:55:06.511Z,14.50
2017-09-15T16:57:34.842Z,14.50
2017-09-15T17:00:03.210Z,14.40
2017-09-15T17:02:31.588Z,14.40
2017-09-15T17:05:00.732Z,14.30
2017-09-15T17:07:29.999Z,14.30
2017-09-15T17:09:58.382Z,14.30
2017-09-15T17:12:26.712Z,14.20
2017-09-15T17:14:55.047Z,14.10
2017-09-15T17:17:23.378Z,13.90
2017-09-15T17:19:51.739Z,14.00
2017-09-15T17:22:20.095Z,13.90
2017-09-15T17:24:48.424Z,13.90
2017-09-15T17:27:17.522Z,13.80
2017-09-15T17:29:45.854Z,13.80
2017-09-15T17:32:14.194Z,13.80
2017-09-15T17:34:43.280Z,13.70
2017-09-15T17:37:13.028Z,13.70
2017-09-15T17:39:41.339Z,13.60
2017-09-15T17:42:09.678Z,13.60
2017-09-15T17:44:38.015Z,13.60
2017-09-15T17:47:06.359Z,13.60
2017-09-15T17:49:34.666Z,13.50
2017-09-15T17:52:03.019Z,13.30
2017-09-15T17:54:31.333Z,13.20
2017-09-15T17:56:59.657Z,13.40
2017-09-15T17:59:27.994Z,13.40
2017-09-15T18:01:56.340Z,13.10
2017-09-15T18:04:24.685Z,13.10
2017-09-15T18:06:53.003Z,13.20
2017-09-15T18:09:21.368Z,13.10
2017-09-15T18:11:49.690Z,13.00
2017-09-15T18:14:18.804Z,12.10
2017-09-15T18:16:47.123Z,12.10
2017-09-15T18:19:15.482Z,12.20
2017-09-15T18:21:43.801Z,12.40
2017-09-15T18:24:12.154Z,12.50
2017-09-15T18:26:40.476Z,12.30
2017-09-15T18:29:10.240Z,12.30
2017-09-15T18:31:38.579Z,12.30
2017-09-15T18:34:06.915Z,12.40
2017-09-15T18:36:35.270Z,12.50
2017-09-15T18:39:03.635Z,12.40
2017-09-15T18:41:32.043Z,12.50
2017-09-15T18:44:00.370Z,12.50
2017-09-15T18:46:29.487Z,12.10
2017-09-15T18:48:57.802Z,12.10
2017-09-15T18:51:26.135Z,12.00
2017-09-15T18:53:55.257Z,11.90
2017-09-15T18:56:23.613Z,11.90
2017-09-15T18:58:52.843Z,12.00
2017-09-15T19:01:21.190Z,12.00
2017-09-15T19:03:50.262Z,11.60
2017-09-15T19:06:18.616Z,11.60
2017-09-15T19:08:46.937Z,11.50
2017-09-15T19:11:16.018Z,11.70
2017-09-15T19:13:45.144Z,11.50
2017-09-15T19:16:13.488Z,11.50
2017-09-15T19:18:41.823Z,11.20
2017-09-15T19:21:10.135Z,11.30
2017-09-15T19:23:38.523Z,11.30
2017-09-15T19:26:06.843Z,11.40
2017-09-15T19:28:35.182Z,11.30
2017-09-15T19:31:03.500Z,11.30
2017-09-15T19:33:31.845Z,11.30
2017-09-15T19:36:00.162Z,11.30
2017-09-15T19:38:28.584Z,11.10
2017-09-15T19:40:56.964Z,11.00
2017-09-15T19:43:25.314Z,10.90
2017-09-15T19:45:53.631Z,10.80
2017-09-15T19:48:21.944Z,10.80
2017-09-15T19:50:50.330Z,10.80
2017-09-15T19:53:18.664Z,10.60
2017-09-15T19:55:47.021Z,10.40
2017-09-15T19:58:15.341Z,10.60
2017-09-15T20:00:44.438Z,10.50
2017-09-15T20:03:13.514Z,10.40
2017-09-15T20:05:41.847Z,10.40
2017-09-15T20:08:10.170Z,10.30
2017-09-15T20:10:38.576Z,10.40
2017-09-15T20:13:07.711Z,10.20
2017-09-15T20:15:36.068Z,10.20
2017-09-15T20:18:04.418Z,10.10
2017-09-15T20:20:32.735Z,10.10
2017-09-15T20:23:01.927Z,10.20
2017-09-15T20:25:30.253Z,10.10
2017-09-15T20:27:58.596Z,10.20
2017-09-15T20:30:26.909Z,9.70
2017-09-15T20:32:55.229Z,9.50
2017-09-15T20:35:24.317Z,9.70
2017-09-15T20:37:53.414Z,9.80
2017-09-15T20:40:22.495Z,9.60
2017-09-15T20:42:50.828Z,9.60
2017-09-15T20:45:19.163Z,9.40
2017-09-15T20:47:47.474Z,9.50
2017-09-15T20:50:15.827Z,9.50
2017-09-15T20:52:44.950Z,9.70
2017-09-15T20:55:13.297Z,9.70
2017-09-15T20:57:42.367Z,9.70
2017-09-15T21:00:10.707Z,9.70
2017-09-15T21:02:39.059Z,9.70
2017-09-15T21:05:08.169Z,9.60
2017-09-15T21:07:39.919Z,9.60
2017-09-15T21:10:09.028Z,9.50
2017-09-15T21:12:37.345Z,9.40
2017-09-15T21:15:05.683Z,9.30
2017-09-15T21:17:34.003Z,9.20
2017-09-15T21:20:02.326Z,9.10
2017-09-15T21:22:31.430Z,9.20
2017-09-15T21:24:59.743Z,9.20
2017-09-15T21:27:28.073Z,9.30
2017-09-15T21:29:56.368Z,9.20
2017-09-15T21:32:24.711Z,9.20
2017-09-15T21:34:53.014Z,9.30
2017-09-15T21:37:22.108Z,9.00
2017-09-15T21:39:51.181Z,9.00
2017-09-15T21:42:19.506Z,9.00
2017-09-15T21:44:47.846Z,9.00
2017-09-15T21:47:16.183Z,8.90
2017-09-15T21:49:44.487Z,8.80
2017-09-15T21:52:12.833Z,8.90
2017-09-15T21:54:41.144Z,9.00
2017-09-15T21:57:09.460Z,9.00
2017-09-15T21:59:38.554Z,8.90
2017-09-15T22:02:07.639Z,8.70
2017-09-15T22:04:41.024Z,8.60
2017-09-15T22:07:09.333Z,8.70
2017-09-15T22:09:37.662Z,8.70
2017-09-15T22:12:05.988Z,8.80
2017-09-15T22:14:35.094Z,8.80
2017-09-15T22:17:03.404Z,8.80
2017-09-15T22:19:31.756Z,8.80
2017-09-15T22:22:00.074Z,8.80
2017-09-15T22:24:28.415Z,8.70
2017-09-15T22:26:56.718Z,8.80
2017-09-15T22:29:25.061Z,8.70
2017-09-15T22:31:53.387Z,8.80
2017-09-15T22:34:21.740Z,8.80
2017-09-15T22:36:50.058Z,8.70
2017-09-15T22:39:18.395Z,8.60
2017-09-15T22:41:46.732Z,8.50
2017-09-15T22:44:15.820Z,8.20
2017-09-15T22:46:44.152Z,8.20
2017-09-15T22:49:12.458Z,8.10
2017-09-15T22:51:40.803Z,8.20
2017-09-15T22:54:09.105Z,8.30
2017-09-15T22:56:37.473Z,8.20
2017-09-15T22:59:05.790Z,7.90
2017-09-15T23:01:34.133Z,7.70
2017-09-15T23:04:02.456Z,7.70
2017-09-15T23:06:30.796Z,7.70
2017-09-15T23:08:59.127Z,7.70
2017-09-15T23:11:45.264Z,7.90
2017-09-15T23:14:13.582Z,7.80
2017-09-15T23:16:41.919Z,8.00
2017-09-15T23:19:10.226Z,8.10
2017-09-15T23:21:38.547Z,8.10
2017-09-15T23:24:06.880Z,7.90
2017-09-15T23:26:36.134Z,7.80
2017-09-15T23:29:04.489Z,7.80
2017-09-15T23:31:33.562Z,7.80
2017-09-15T23:34:01.891Z,7.80
2017-09-15T23:36:30.201Z,7.70
2017-09-15T23:38:58.536Z,7.70
2017-09-15T23:41:26.859Z,7.60
2017-09-15T23:43:55.220Z,7.60
2017-09-15T23:46:23.535Z,7.60
2017-09-15T23:48:51.878Z,7.60
2017-09-15T23:51:20.207Z,7.60
2017-09-15T23:53:50.149Z,7.70
2017-09-15T23:56:18.467Z,7.70
2017-09-15T23:58:46.784Z,7.80
